createdAt,value
2019-02-19T00:00:56.385Z,99.99
2019-02-19T00:01:57.821Z,99.99
2019-02-19T00:02:56.453Z,99.99
2019-02-19T00:03:56.490Z,99.99
2019-02-19T00:04:56.525Z,99.99
2019-02-19T00:05:56.575Z,99.99
2019-02-19T00:06:56.594Z,99.99
2019-02-19T00:07:56.690Z,99.99
2019-02-19T00:08:56.666Z,99.99
2019-02-19T00:09:56.708Z,99.99
2019-02-19T00:10:56.736Z,99.99
2019-02-19T00:11:56.771Z,99.99
2019-02-19T00:12:56.809Z,99.99
2019-02-19T00:13:56.842Z,99.99
2019-02-19T00:14:56.878Z,99.99
2019-02-19T00:15:56.917Z,99.99
2019-02-19T00:16:56.948Z,99.99
2019-02-19T00:17:56.986Z,99.99
2019-02-19T00:18:57.019Z,99.99
2019-02-19T00:19:57.054Z,99.99
2019-02-19T00:20:57.091Z,99.99
2019-02-19T00:21:57.127Z,99.99
2019-02-19T00:22:57.161Z,99.99
2019-02-19T00:23:57.197Z,99.99
2019-02-19T00:24:57.234Z,99.99
2019-02-19T00:25:57.282Z,99.99
2019-02-19T00:26:57.352Z,99.99
2019-02-19T00:27:57.387Z,99.99
2019-02-19T00:28:57.380Z,99.99
2019-02-19T00:29:57.407Z,99.99
2019-02-19T00:30:57.444Z,99.99
2019-02-19T00:31:57.478Z,99.99
2019-02-19T00:32:57.514Z,99.99
2019-02-19T00:33:57.552Z,99.99
2019-02-19T00:34:57.588Z,99.99
2019-02-19T00:35:57.619Z,99.99
2019-02-19T00:36:57.657Z,99.99
2019-02-19T00:37:57.690Z,99.99
2019-02-19T00:38:57.728Z,99.99
2019-02-19T00:39:57.770Z,99.99
2019-02-19T00:40:57.796Z,99.99
2019-02-19T00:41:57.831Z,99.99
2019-02-19T00:42:57.867Z,99.99
2019-02-19T00:43:57.903Z,99.99
2019-02-19T00:44:57.936Z,99.99
2019-02-19T00:45:57.973Z,99.99
2019-02-19T00:46:58.007Z,99.99
2019-02-19T00:47:58.045Z,99.99
2019-02-19T00:48:58.077Z,99.99
2019-02-19T00:49:58.121Z,99.99
2019-02-19T00:50:58.155Z,99.99
2019-02-19T00:51:58.185Z,99.99
2019-02-19T00:52:58.220Z,99.99
2019-02-19T00:53:58.262Z,99.99
2019-02-19T00:54:58.290Z,99.99
2019-02-19T00:55:58.325Z,99.99
2019-02-19T00:56:58.362Z,99.99
2019-02-19T00:57:58.395Z,99.99
2019-02-19T00:58:58.431Z,99.99
2019-02-19T00:59:58.469Z,99.99
2019-02-19T01:00:58.502Z,99.99
2019-02-19T01:01:58.535Z,99.99
2019-02-19T01:02:58.572Z,99.99
2019-02-19T01:03:58.614Z,99.99
2019-02-19T01:04:58.644Z,99.99
2019-02-19T01:05:58.679Z,99.99
2019-02-19T01:06:58.717Z,99.99
2019-02-19T01:07:58.750Z,99.99
2019-02-19T01:08:58.782Z,99.99
2019-02-19T01:09:58.825Z,99.99
2019-02-19T01:10:58.855Z,99.99
2019-02-19T01:11:58.892Z,99.99
2019-02-19T01:12:58.928Z,99.99
2019-02-19T01:13:58.957Z,99.99
2019-02-19T01:14:58.995Z,99.99
2019-02-19T01:15:59.027Z,99.99
2019-02-19T01:16:59.063Z,99.99
2019-02-19T01:17:59.098Z,99.99
2019-02-19T01:18:59.134Z,99.99
2019-02-19T01:19:59.172Z,99.99
2019-02-19T01:20:59.216Z,99.99
2019-02-19T01:21:59.238Z,99.99
2019-02-19T01:22:59.274Z,99.99
2019-02-19T01:23:59.310Z,99.99
2019-02-19T01:24:59.346Z,99.99
2019-02-19T01:25:59.379Z,99.99
2019-02-19T01:26:59.422Z,99.99
2019-02-19T01:27:59.449Z,99.99
2019-02-19T01:28:59.485Z,99.99
2019-02-19T01:29:59.519Z,99.99
2019-02-19T01:30:59.559Z,99.99
2019-02-19T01:31:59.592Z,99.99
2019-02-19T01:32:59.627Z,99.99
2019-02-19T01:33:59.716Z,99.99
2019-02-19T01:34:59.697Z,99.99
2019-02-19T01:35:59.731Z,99.99
2019-02-19T01:36:59.808Z,99.99
2019-02-19T01:37:59.802Z,99.99
2019-02-19T01:38:59.836Z,99.99
2019-02-19T01:39:59.879Z,99.99
2019-02-19T01:40:59.914Z,99.99
2019-02-19T01:41:59.942Z,99.99
2019-02-19T01:42:59.997Z,99.99
2019-02-19T01:44:00.012Z,99.99
2019-02-19T01:45:00.106Z,99.99
2019-02-19T01:46:00.084Z,99.99
2019-02-19T01:47:00.119Z,99.99
2019-02-19T01:48:00.154Z,99.99
2019-02-19T01:49:00.193Z,99.99
2019-02-19T01:50:00.296Z,99.99
2019-02-19T01:51:00.257Z,99.99
2019-02-19T01:52:00.294Z,99.99
2019-02-19T01:53:00.329Z,99.99
2019-02-19T01:54:00.363Z,99.99
2019-02-19T01:55:00.398Z,99.99
2019-02-19T01:56:00.433Z,99.99
2019-02-19T01:57:00.470Z,99.99
2019-02-19T01:58:00.503Z,99.99
2019-02-19T01:59:00.539Z,99.99
2019-02-19T02:00:00.578Z,99.99
2019-02-19T02:01:00.610Z,99.99
2019-02-19T02:02:00.644Z,99.99
2019-02-19T02:03:00.677Z,99.99
2019-02-19T02:04:00.714Z,99.99
2019-02-19T02:05:00.750Z,99.99
2019-02-19T02:06:00.793Z,99.99
2019-02-19T02:07:00.822Z,99.99
2019-02-19T02:08:00.864Z,99.99
2019-02-19T02:09:00.889Z,99.99
2019-02-19T02:10:00.923Z,99.99
2019-02-19T02:11:00.960Z,99.99
2019-02-19T02:12:00.995Z,99.99
2019-02-19T02:13:01.031Z,99.99
2019-02-19T02:14:01.073Z,99.99
2019-02-19T02:15:01.101Z,99.99
2019-02-19T02:16:01.139Z,99.99
2019-02-19T02:17:01.172Z,99.99
2019-02-19T02:18:01.210Z,99.99
2019-02-19T02:19:01.241Z,99.99
2019-02-19T02:20:01.275Z,99.99
2019-02-19T02:21:01.311Z,99.99
2019-02-19T02:22:01.346Z,99.99
2019-02-19T02:23:01.380Z,99.99
2019-02-19T02:24:01.419Z,99.99
2019-02-19T02:25:01.452Z,99.99
2019-02-19T02:26:01.485Z,99.99
2019-02-19T02:27:01.521Z,99.99
2019-02-19T02:28:01.557Z,99.99
2019-02-19T02:29:01.592Z,99.99
2019-02-19T02:30:01.638Z,99.99
2019-02-19T02:31:01.826Z,99.99
2019-02-19T02:32:01.701Z,99.99
2019-02-19T02:33:01.739Z,99.99
2019-02-19T02:34:01.766Z,99.99
2019-02-19T02:35:01.810Z,99.99
2019-02-19T02:36:01.842Z,99.99
2019-02-19T02:37:01.874Z,99.99
2019-02-19T02:38:01.906Z,99.99
2019-02-19T02:39:01.954Z,99.99
2019-02-19T02:40:01.977Z,99.99
2019-02-19T02:41:02.017Z,99.99
2019-02-19T02:42:02.054Z,99.99
2019-02-19T02:43:02.088Z,99.99
2019-02-19T02:44:02.116Z,99.99
2019-02-19T02:45:02.155Z,99.99
2019-02-19T02:46:02.186Z,99.99
2019-02-19T02:47:02.221Z,99.99
2019-02-19T02:48:02.256Z,99.99
2019-02-19T02:49:02.301Z,99.99
2019-02-19T02:50:02.429Z,99.99
2019-02-19T02:51:02.365Z,99.99
2019-02-19T02:52:02.408Z,99.99
2019-02-19T02:53:02.444Z,99.99
2019-02-19T02:54:02.468Z,99.99
2019-02-19T02:55:02.504Z,99.99
2019-02-19T02:56:02.543Z,99.99
2019-02-19T02:57:02.574Z,99.99
2019-02-19T02:58:02.607Z,99.99
2019-02-19T02:59:02.643Z,99.99
2019-02-19T03:00:02.682Z,99.99
2019-02-19T03:01:02.714Z,99.99
2019-02-19T03:02:02.747Z,99.99
2019-02-19T03:03:02.782Z,99.99
2019-02-19T03:04:02.818Z,99.99
2019-02-19T03:05:02.853Z,99.99
2019-02-19T03:06:02.889Z,99.99
2019-02-19T03:07:02.923Z,99.99
2019-02-19T03:08:02.968Z,99.99
2019-02-19T03:09:03.004Z,99.99
2019-02-19T03:10:03.025Z,99.99
2019-02-19T03:11:03.075Z,99.99
2019-02-19T03:12:03.105Z,99.99
2019-02-19T03:13:03.134Z,99.99
2019-02-19T03:14:03.167Z,99.99
2019-02-19T03:15:03.202Z,99.99
2019-02-19T03:16:03.240Z,99.99
2019-02-19T03:17:03.273Z,99.99
2019-02-19T03:18:03.306Z,99.99
2019-02-19T03:19:03.346Z,99.99
2019-02-19T03:20:03.380Z,99.99
2019-02-19T03:21:03.415Z,99.99
2019-02-19T03:22:03.460Z,99.99
2019-02-19T03:23:03.485Z,99.99
2019-02-19T03:24:03.519Z,99.99
2019-02-19T03:25:03.557Z,99.99
2019-02-19T03:26:03.589Z,99.99
2019-02-19T03:27:03.623Z,99.99
2019-02-19T03:28:03.766Z,99.99
2019-02-19T03:29:03.694Z,99.99
2019-02-19T03:30:03.735Z,99.99
2019-02-19T03:31:03.772Z,99.99
2019-02-19T03:32:03.817Z,99.99
2019-02-19T03:33:03.851Z,99.99
2019-02-19T03:34:03.868Z,99.99
2019-02-19T03:35:03.903Z,99.99
2019-02-19T03:36:03.937Z,99.99
2019-02-19T03:37:03.988Z,99.99
2019-02-19T03:38:04.016Z,99.99
2019-02-19T03:39:04.041Z,99.99
2019-02-19T03:40:04.087Z,99.99
2019-02-19T03:41:04.117Z,99.99
2019-02-19T03:42:04.148Z,99.99
2019-02-19T03:43:04.185Z,99.99
2019-02-19T03:44:04.226Z,99.99
2019-02-19T03:45:04.254Z,99.99
2019-02-19T03:46:11.824Z,99.99
2019-02-19T03:47:04.321Z,99.99
2019-02-19T03:48:04.358Z,99.99
2019-02-19T03:49:04.393Z,99.99
2019-02-19T03:50:04.428Z,99.99
2019-02-19T03:51:04.465Z,99.99
2019-02-19T03:52:04.531Z,99.99
2019-02-19T03:53:04.534Z,99.99
2019-02-19T03:54:04.568Z,99.99
2019-02-19T03:55:04.601Z,99.99
2019-02-19T03:56:04.638Z,99.99
2019-02-19T03:57:04.673Z,99.99
2019-02-19T03:58:04.705Z,99.99
2019-02-19T03:59:04.743Z,99.99
2019-02-19T04:00:04.779Z,99.99
2019-02-19T04:01:04.814Z,99.99
2019-02-19T04:02:04.848Z,99.99
2019-02-19T04:03:04.899Z,99.99
2019-02-19T04:04:04.918Z,99.99
2019-02-19T04:05:04.962Z,99.99
2019-02-19T04:06:04.997Z,99.99
2019-02-19T04:07:05.024Z,99.99
2019-02-19T04:08:05.074Z,99.99
2019-02-19T04:09:05.094Z,99.99
2019-02-19T04:10:05.132Z,99.99
2019-02-19T04:11:05.167Z,99.99
2019-02-19T04:12:05.199Z,99.99
2019-02-19T04:13:05.234Z,99.99
2019-02-19T04:14:05.267Z,99.99
2019-02-19T04:15:05.306Z,99.99
2019-02-19T04:16:05.340Z,99.99
2019-02-19T04:17:05.375Z,99.99
2019-02-19T04:18:05.408Z,99.99
2019-02-19T04:19:05.445Z,99.99
2019-02-19T04:20:05.481Z,99.99
2019-02-19T04:21:05.514Z,99.99
2019-02-19T04:22:05.558Z,99.99
2019-02-19T04:23:05.585Z,99.99
2019-02-19T04:24:05.622Z,99.99
2019-02-19T04:25:05.656Z,99.99
2019-02-19T04:26:05.690Z,99.99
2019-02-19T04:27:05.725Z,99.99
2019-02-19T04:28:05.760Z,99.99
2019-02-19T04:29:05.802Z,99.99
2019-02-19T04:30:05.833Z,99.99
2019-02-19T04:31:05.868Z,99.99
2019-02-19T04:32:05.904Z,99.99
2019-02-19T04:33:05.938Z,99.99
2019-02-19T04:34:05.971Z,99.99
2019-02-19T04:35:06.008Z,99.99
2019-02-19T04:36:06.043Z,99.99
2019-02-19T04:37:06.076Z,99.99
2019-02-19T04:38:06.114Z,99.99
2019-02-19T04:39:06.147Z,99.99
2019-02-19T04:40:06.185Z,99.99
2019-02-19T04:41:06.220Z,99.99
2019-02-19T04:42:06.257Z,99.99
2019-02-19T04:43:06.289Z,99.99
2019-02-19T04:44:06.327Z,99.99
2019-02-19T04:45:06.361Z,99.99
2019-02-19T04:46:06.416Z,99.99
2019-02-19T04:47:06.531Z,99.99
2019-02-19T04:48:06.473Z,99.99
2019-02-19T04:49:06.500Z,99.99
2019-02-19T04:50:06.546Z,99.99
2019-02-19T04:51:06.570Z,99.99
2019-02-19T04:52:06.606Z,99.99
2019-02-19T04:53:06.641Z,99.99
2019-02-19T04:54:06.677Z,99.99
2019-02-19T04:55:06.720Z,99.99
2019-02-19T04:56:06.747Z,99.99
2019-02-19T04:57:06.782Z,99.99
2019-02-19T04:58:06.816Z,99.99
2019-02-19T04:59:06.854Z,99.99
2019-02-19T05:00:06.889Z,99.99
2019-02-19T05:01:06.932Z,99.99
2019-02-19T05:02:06.957Z,99.99
2019-02-19T05:03:06.996Z,99.99
2019-02-19T05:04:07.036Z,99.99
2019-02-19T05:05:07.064Z,99.99
2019-02-19T05:06:07.100Z,99.99
2019-02-19T05:07:07.139Z,99.99
2019-02-19T05:08:07.172Z,99.99
2019-02-19T05:09:07.207Z,99.99
2019-02-19T05:10:07.243Z,99.99
2019-02-19T05:11:07.284Z,99.99
2019-02-19T05:12:07.313Z,99.99
2019-02-19T05:13:07.354Z,99.99
2019-02-19T05:14:07.383Z,99.99
2019-02-19T05:15:07.418Z,99.99
2019-02-19T05:16:07.455Z,99.99
2019-02-19T05:17:07.555Z,99.99
2019-02-19T05:18:07.524Z,99.99
2019-02-19T05:19:07.561Z,99.99
2019-02-19T05:20:07.596Z,99.99
2019-02-19T05:21:07.630Z,99.99
2019-02-19T05:22:07.670Z,99.99
2019-02-19T05:23:07.709Z,99.99
2019-02-19T05:24:07.789Z,99.99
2019-02-19T05:25:07.771Z,99.99
2019-02-19T05:26:07.859Z,99.99
2019-02-19T05:27:07.850Z,99.99
2019-02-19T05:28:07.879Z,99.99
2019-02-19T05:29:07.916Z,99.99
2019-02-19T05:30:07.949Z,99.99
2019-02-19T05:31:07.989Z,99.99
2019-02-19T05:32:08.021Z,99.99
2019-02-19T05:33:08.060Z,99.99
2019-02-19T05:34:08.097Z,99.99
2019-02-19T05:35:08.135Z,99.99
2019-02-19T05:36:09.172Z,99.99
2019-02-19T05:37:08.198Z,99.99
2019-02-19T05:38:08.235Z,99.99
2019-02-19T05:39:08.278Z,99.99
2019-02-19T05:40:08.304Z,99.99
2019-02-19T05:41:08.343Z,99.99
2019-02-19T05:42:08.381Z,99.99
2019-02-19T05:43:08.412Z,99.99
2019-02-19T05:44:08.444Z,99.99
2019-02-19T05:45:08.480Z,99.99
2019-02-19T05:46:08.521Z,99.99
2019-02-19T05:47:08.560Z,99.99
2019-02-19T05:48:08.585Z,99.99
2019-02-19T05:49:08.621Z,99.99
2019-02-19T05:50:08.656Z,99.99
2019-02-19T05:51:08.691Z,99.99
2019-02-19T05:52:08.727Z,99.99
2019-02-19T05:53:08.762Z,99.99
2019-02-19T05:54:08.803Z,99.99
2019-02-19T05:55:08.834Z,99.99
2019-02-19T05:56:08.868Z,99.99
2019-02-19T05:57:08.901Z,99.99
2019-02-19T05:58:08.936Z,99.99
2019-02-19T05:59:08.983Z,99.99
2019-02-19T06:00:09.016Z,99.99
2019-02-19T06:01:09.043Z,99.99
2019-02-19T06:02:09.080Z,99.99
2019-02-19T06:03:09.122Z,99.99
2019-02-19T06:04:09.148Z,99.99
2019-02-19T06:05:09.182Z,99.99
2019-02-19T06:06:09.217Z,99.99
2019-02-19T06:07:09.262Z,99.99
2019-02-19T06:08:09.290Z,99.99
2019-02-19T06:09:09.324Z,99.99
2019-02-19T06:10:09.360Z,99.99
2019-02-19T06:11:09.432Z,99.99
2019-02-19T06:12:09.437Z,99.99
2019-02-19T06:13:09.493Z,99.99
2019-02-19T06:14:09.502Z,99.99
2019-02-19T06:15:09.537Z,99.99
2019-02-19T06:16:09.573Z,99.99
2019-02-19T06:17:09.608Z,99.99
2019-02-19T06:18:09.640Z,99.99
2019-02-19T06:19:09.684Z,99.99
2019-02-19T06:20:09.712Z,99.99
2019-02-19T06:21:09.748Z,99.99
2019-02-19T06:22:09.783Z,99.99
2019-02-19T06:23:09.818Z,99.99
2019-02-19T06:24:09.854Z,99.99
2019-02-19T06:25:09.902Z,99.99
2019-02-19T06:26:09.926Z,99.99
2019-02-19T06:27:09.976Z,99.99
2019-02-19T06:28:10.013Z,99.99
2019-02-19T06:29:10.033Z,99.99
2019-02-19T06:30:10.065Z,99.99
2019-02-19T06:31:10.103Z,99.99
2019-02-19T06:32:10.137Z,99.99
2019-02-19T06:33:10.173Z,99.99
2019-02-19T06:34:10.208Z,99.99
2019-02-19T06:35:10.245Z,99.99
2019-02-19T06:36:10.286Z,99.99
2019-02-19T06:37:10.321Z,99.99
2019-02-19T06:38:10.350Z,99.99
2019-02-19T06:39:10.385Z,99.99
2019-02-19T06:40:10.422Z,99.99
2019-02-19T06:41:10.459Z,99.99
2019-02-19T06:42:10.552Z,99.99
2019-02-19T06:43:10.536Z,99.99
2019-02-19T06:44:10.567Z,99.99
2019-02-19T06:45:10.608Z,99.99
2019-02-19T06:46:10.635Z,99.99
2019-02-19T06:47:10.673Z,99.99
2019-02-19T06:48:10.750Z,99.99
2019-02-19T06:49:10.747Z,99.99
2019-02-19T06:50:10.781Z,99.99
2019-02-19T06:51:10.863Z,99.99
2019-02-19T06:52:10.854Z,99.99
2019-02-19T06:53:10.891Z,99.99
2019-02-19T06:54:10.926Z,99.99
2019-02-19T06:55:10.960Z,99.99
2019-02-19T06:56:11.000Z,99.99
2019-02-19T06:57:11.037Z,99.99
2019-02-19T06:58:11.069Z,99.99
2019-02-19T06:59:11.106Z,99.99
2019-02-19T07:00:11.141Z,99.99
2019-02-19T07:01:11.179Z,99.99
2019-02-19T07:02:11.216Z,99.99
2019-02-19T07:03:11.250Z,99.99
2019-02-19T07:04:11.288Z,99.99
2019-02-19T07:05:11.324Z,99.99
2019-02-19T07:06:11.365Z,99.99
2019-02-19T07:07:11.397Z,99.99
2019-02-19T07:08:11.434Z,99.99
2019-02-19T07:09:11.479Z,99.99
2019-02-19T07:10:11.504Z,99.99
2019-02-19T07:11:11.541Z,99.99
2019-02-19T07:12:11.582Z,99.99
2019-02-19T07:13:11.613Z,99.99
2019-02-19T07:14:11.650Z,99.99
2019-02-19T07:15:11.687Z,99.99
2019-02-19T07:16:11.724Z,99.99
2019-02-19T07:17:15.766Z,99.99
2019-02-19T07:18:11.798Z,99.99
2019-02-19T07:19:11.839Z,99.99
2019-02-19T07:20:11.871Z,99.99
2019-02-19T07:21:11.907Z,99.99
2019-02-19T07:22:11.949Z,99.99
2019-02-19T07:23:11.978Z,99.99
2019-02-19T07:24:12.014Z,99.99
2019-02-19T07:25:12.053Z,99.99
2019-02-19T07:26:12.088Z,99.99
2019-02-19T07:27:12.124Z,99.99
2019-02-19T07:28:12.170Z,99.99
2019-02-19T07:29:12.202Z,99.99
2019-02-19T07:30:12.238Z,99.99
2019-02-19T07:31:12.281Z,99.99
2019-02-19T07:32:12.310Z,99.99
2019-02-19T07:33:12.349Z,99.99
2019-02-19T07:34:12.382Z,99.99
2019-02-19T07:35:12.448Z,99.99
2019-02-19T07:36:12.461Z,99.99
2019-02-19T07:37:12.491Z,99.99
2019-02-19T07:38:12.527Z,99.99
2019-02-19T07:39:12.563Z,99.99
2019-02-19T07:40:12.610Z,99.99
2019-02-19T07:41:12.643Z,99.99
2019-02-19T07:42:12.673Z,99.99
2019-02-19T07:43:12.710Z,99.99
2019-02-19T07:44:12.755Z,99.99
2019-02-19T07:45:12.784Z,99.99
2019-02-19T07:46:12.822Z,99.99
2019-02-19T07:47:12.857Z,99.99
2019-02-19T07:48:12.901Z,99.99
2019-02-19T07:49:12.940Z,99.99
2019-02-19T07:50:12.967Z,99.99
2019-02-19T07:51:13.005Z,99.99
2019-02-19T07:52:13.044Z,99.99
2019-02-19T07:53:13.080Z,99.99
2019-02-19T07:54:13.116Z,99.99
2019-02-19T07:55:13.166Z,99.99
2019-02-19T07:56:13.189Z,99.99
2019-02-19T07:57:13.230Z,99.99
2019-02-19T07:58:13.263Z,99.99
2019-02-19T07:59:13.307Z,99.99
2019-02-19T08:00:13.390Z,99.99
2019-02-19T08:01:13.376Z,99.99
2019-02-19T08:02:13.410Z,99.99
2019-02-19T08:03:13.449Z,99.99
2019-02-19T08:04:13.487Z,99.99
2019-02-19T08:05:13.523Z,99.99
2019-02-19T08:06:13.559Z,99.99
2019-02-19T08:07:13.597Z,99.99
2019-02-19T08:08:13.639Z,99.99
2019-02-19T08:09:13.674Z,99.99
2019-02-19T08:10:13.710Z,99.99
2019-02-19T08:11:13.745Z,99.99
2019-02-19T08:12:13.781Z,99.99
2019-02-19T08:13:13.821Z,99.99
2019-02-19T08:14:13.857Z,99.99
2019-02-19T08:15:13.892Z,99.99
2019-02-19T08:16:13.932Z,99.99
2019-02-19T08:17:13.967Z,99.99
2019-02-19T08:18:14.005Z,99.99
2019-02-19T08:19:14.041Z,99.99
2019-02-19T08:20:16.120Z,99.99
2019-02-19T08:21:14.123Z,99.99
2019-02-19T08:22:14.154Z,99.99
2019-02-19T08:23:14.234Z,99.99
2019-02-19T08:24:14.227Z,99.99
2019-02-19T08:25:14.270Z,99.99
2019-02-19T08:26:14.302Z,99.99
2019-02-19T08:27:14.340Z,99.99
2019-02-19T08:28:14.375Z,99.99
2019-02-19T08:29:14.412Z,99.99
2019-02-19T08:30:14.448Z,99.99
2019-02-19T08:31:14.489Z,99.99
2019-02-19T08:32:14.524Z,99.99
2019-02-19T08:33:14.561Z,99.99
2019-02-19T08:34:14.616Z,99.99
2019-02-19T08:35:14.635Z,99.99
2019-02-19T08:36:14.673Z,99.99
2019-02-19T08:37:14.710Z,99.99
2019-02-19T08:38:14.756Z,99.99
2019-02-19T08:39:14.784Z,99.99
2019-02-19T08:40:14.832Z,99.99
2019-02-19T08:41:14.859Z,99.99
2019-02-19T08:42:14.901Z,99.99
2019-02-19T08:43:14.938Z,99.99
2019-02-19T08:44:14.977Z,99.99
2019-02-19T08:45:15.010Z,99.99
2019-02-19T08:46:15.047Z,99.99
2019-02-19T08:47:15.086Z,99.99
2019-02-19T08:48:15.123Z,99.99
2019-02-19T08:49:15.161Z,99.99
2019-02-19T08:50:15.197Z,99.99
2019-02-19T08:51:15.235Z,99.99
2019-02-19T08:52:15.282Z,99.99
2019-02-19T08:53:15.312Z,99.99
2019-02-19T08:54:15.348Z,99.99
2019-02-19T08:55:15.387Z,99.99
2019-02-19T08:56:15.425Z,99.99
2019-02-19T08:57:15.461Z,99.99
2019-02-19T08:58:15.500Z,99.99
2019-02-19T08:59:15.536Z,99.99
2019-02-19T09:00:15.575Z,99.99
2019-02-19T09:01:15.613Z,99.99
2019-02-19T09:02:15.651Z,99.99
2019-02-19T09:03:16.917Z,99.99
2019-02-19T09:04:15.725Z,99.99
2019-02-19T09:05:15.768Z,99.99
2019-02-19T09:06:15.810Z,99.99
2019-02-19T09:07:15.842Z,99.99
2019-02-19T09:08:15.884Z,99.99
2019-02-19T09:09:15.919Z,99.99
2019-02-19T09:10:15.953Z,99.99
2019-02-19T09:11:15.989Z,99.99
2019-02-19T09:12:16.033Z,99.99
2019-02-19T09:13:16.168Z,99.99
2019-02-19T09:14:16.115Z,99.99
2019-02-19T09:15:16.142Z,99.99
2019-02-19T09:16:16.179Z,99.99
2019-02-19T09:17:16.225Z,99.99
2019-02-19T09:18:16.268Z,99.99
2019-02-19T09:19:16.293Z,99.99
2019-02-19T09:20:16.330Z,99.99
2019-02-19T09:21:16.371Z,99.99
2019-02-19T09:22:16.407Z,99.99
2019-02-19T09:23:16.447Z,99.99
2019-02-19T09:24:16.486Z,99.99
2019-02-19T09:25:16.523Z,99.99
2019-02-19T09:26:16.565Z,99.69
2019-02-19T09:27:16.608Z,99.78
2019-02-19T09:28:16.639Z,99.97
2019-02-19T09:29:16.676Z,99.78
2019-02-19T09:30:16.716Z,99.59
2019-02-19T09:31:16.751Z,99.88
2019-02-19T09:32:16.793Z,99.40
2019-02-19T09:33:16.830Z,99.40
2019-02-19T09:34:16.869Z,99.78
2019-02-19T09:35:16.911Z,99.78
2019-02-19T09:36:16.946Z,99.88
2019-02-19T09:37:16.985Z,99.97
2019-02-19T09:38:17.026Z,99.99
2019-02-19T09:39:17.064Z,99.99
2019-02-19T09:40:17.100Z,99.99
2019-02-19T09:41:17.136Z,99.99
2019-02-19T09:42:17.175Z,99.99
2019-02-19T09:43:17.213Z,99.99
2019-02-19T09:44:17.260Z,99.99
2019-02-19T09:45:17.297Z,99.99
2019-02-19T09:46:17.329Z,99.99
2019-02-19T09:47:17.375Z,99.99
2019-02-19T09:48:17.407Z,99.99
2019-02-19T09:49:17.445Z,99.99
2019-02-19T09:50:17.489Z,99.99
2019-02-19T09:51:17.533Z,99.99
2019-02-19T09:52:17.562Z,99.99
2019-02-19T09:53:17.603Z,99.99
2019-02-19T09:54:17.639Z,99.99
2019-02-19T09:55:17.678Z,99.99
2019-02-19T09:56:17.726Z,99.99
2019-02-19T09:57:17.768Z,99.74
2019-02-19T09:58:17.796Z,99.74
2019-02-19T09:59:17.836Z,99.93
2019-02-19T10:00:17.887Z,99.45
2019-02-19T10:01:17.912Z,99.99
2019-02-19T10:02:17.951Z,99.45
2019-02-19T10:03:17.995Z,99.69
2019-02-19T10:04:18.033Z,99.88
2019-02-19T10:05:18.076Z,99.79
2019-02-19T10:06:18.114Z,99.22
2019-02-19T10:07:19.361Z,99.22
2019-02-19T10:08:18.184Z,99.12
2019-02-19T10:09:18.223Z,98.65
2019-02-19T10:10:18.264Z,98.74
2019-02-19T10:11:18.300Z,99.50
2019-02-19T10:12:18.337Z,99.50
2019-02-19T10:13:18.381Z,98.74
2019-02-19T10:14:18.434Z,98.74
2019-02-19T10:15:18.462Z,99.60
2019-02-19T10:16:18.500Z,98.93
2019-02-19T10:17:18.535Z,99.22
2019-02-19T10:18:18.577Z,99.41
2019-02-19T10:19:18.613Z,99.31
2019-02-19T10:20:18.659Z,99.41
2019-02-19T10:21:18.687Z,99.12
2019-02-19T10:22:18.730Z,99.31
2019-02-19T10:23:18.775Z,99.31
2019-02-19T10:24:18.807Z,99.12
2019-02-19T10:25:18.847Z,99.31
2019-02-19T10:26:18.885Z,99.02
2019-02-19T10:27:18.945Z,98.93
2019-02-19T10:28:18.963Z,99.12
2019-02-19T10:29:19.007Z,99.69
2019-02-19T10:30:19.052Z,99.79
2019-02-19T10:31:19.082Z,99.99
2019-02-19T10:32:19.120Z,99.69
2019-02-19T10:33:19.160Z,99.02
2019-02-19T10:34:19.204Z,99.31
2019-02-19T10:35:19.239Z,99.02
2019-02-19T10:36:19.277Z,99.41
2019-02-19T10:37:19.318Z,99.98
2019-02-19T10:38:19.356Z,99.79
2019-02-19T10:39:19.396Z,99.99
2019-02-19T10:40:19.438Z,99.41
2019-02-19T10:41:19.486Z,99.31
2019-02-19T10:42:19.513Z,99.60
2019-02-19T10:43:19.552Z,99.98
2019-02-19T10:44:19.591Z,99.60
2019-02-19T10:45:19.638Z,99.69
2019-02-19T10:46:19.668Z,99.41
2019-02-19T10:47:19.716Z,99.60
2019-02-19T10:48:19.746Z,99.99
2019-02-19T10:49:19.787Z,99.99
2019-02-19T10:50:19.927Z,99.99
2019-02-19T10:51:19.868Z,99.99
2019-02-19T10:52:19.904Z,99.99
2019-02-19T10:53:19.944Z,99.99
2019-02-19T10:54:20.000Z,99.99
2019-02-19T10:55:20.021Z,99.99
2019-02-19T10:56:20.062Z,99.99
2019-02-19T10:57:20.159Z,99.99
2019-02-19T10:58:22.953Z,99.99
2019-02-19T10:59:20.181Z,99.99
2019-02-19T11:00:20.217Z,99.99
2019-02-19T11:01:20.256Z,99.99
2019-02-19T11:02:20.294Z,99.99
2019-02-19T11:03:20.336Z,99.99
2019-02-19T11:04:20.375Z,99.99
2019-02-19T11:05:20.425Z,99.99
2019-02-19T11:06:20.471Z,99.99
2019-02-19T11:07:20.489Z,99.99
2019-02-19T11:08:20.530Z,99.99
2019-02-19T11:09:20.575Z,99.99
2019-02-19T11:10:20.608Z,99.99
2019-02-19T11:11:20.659Z,99.99
2019-02-19T11:12:20.687Z,99.99
2019-02-19T11:13:20.725Z,99.99
2019-02-19T11:14:20.763Z,99.99
2019-02-19T11:15:20.809Z,99.99
2019-02-19T11:16:20.843Z,99.99
2019-02-19T11:17:20.882Z,99.99
2019-02-19T11:18:28.092Z,99.99
2019-02-19T11:19:20.962Z,99.99
2019-02-19T11:20:21.000Z,99.99
2019-02-19T11:21:21.040Z,99.99
2019-02-19T11:22:21.079Z,99.65
2019-02-19T11:23:21.118Z,99.99
2019-02-19T11:24:21.164Z,99.99
2019-02-19T11:25:21.200Z,99.32
2019-02-19T11:26:21.235Z,99.98
2019-02-19T11:27:21.281Z,99.89
2019-02-19T11:28:21.315Z,99.69
2019-02-19T11:29:21.362Z,99.79
2019-02-19T11:30:21.398Z,99.37
2019-02-19T11:31:21.440Z,99.27
2019-02-19T11:32:21.475Z,99.27
2019-02-19T11:33:21.520Z,99.46
2019-02-19T11:34:21.554Z,99.55
2019-02-19T11:35:21.599Z,99.08
2019-02-19T11:36:21.640Z,98.99
2019-02-19T11:37:21.775Z,98.51
2019-02-19T11:38:21.716Z,98.51
2019-02-19T11:39:22.639Z,98.99
2019-02-19T11:40:21.796Z,98.18
2019-02-19T11:41:21.860Z,98.18
2019-02-19T11:42:21.931Z,98.08
2019-02-19T11:43:21.918Z,98.08
2019-02-19T11:44:22.076Z,98.08
2019-02-19T11:45:22.011Z,98.03
2019-02-19T11:46:22.052Z,97.56
2019-02-19T11:47:26.666Z,97.08
2019-02-19T11:48:22.116Z,96.89
2019-02-19T11:49:22.159Z,96.51
2019-02-19T11:50:22.199Z,96.13
2019-02-19T11:51:22.239Z,96.03
2019-02-19T11:52:22.282Z,95.84
2019-02-19T11:53:22.379Z,95.27
2019-02-19T11:54:22.360Z,96.08
2019-02-19T11:55:22.402Z,95.89
2019-02-19T11:56:22.443Z,96.08
2019-02-19T11:57:22.491Z,95.98
2019-02-19T11:58:22.524Z,95.22
2019-02-19T11:59:22.573Z,94.65
2019-02-19T12:00:22.606Z,94.93
2019-02-19T12:01:22.648Z,94.84
2019-02-19T12:02:22.690Z,95.03
2019-02-19T12:03:22.741Z,95.03
2019-02-19T12:04:22.774Z,94.27
2019-02-19T12:05:22.821Z,93.98
2019-02-19T12:06:22.912Z,94.17
2019-02-19T12:07:22.909Z,94.17
2019-02-19T12:08:22.949Z,93.60
2019-02-19T12:09:22.983Z,93.88
2019-02-19T12:10:23.021Z,93.22
2019-02-19T12:11:23.062Z,93.93
2019-02-19T12:12:23.103Z,94.12
2019-02-19T12:13:23.194Z,94.60
2019-02-19T12:14:23.191Z,94.70
2019-02-19T12:15:23.225Z,93.74
2019-02-19T12:16:23.267Z,93.08
2019-02-19T12:17:23.308Z,93.17
2019-02-19T12:18:23.355Z,93.46
2019-02-19T12:19:23.391Z,94.03
2019-02-19T12:20:23.439Z,94.12
2019-02-19T12:21:23.479Z,94.70
2019-02-19T12:22:23.513Z,94.41
2019-02-19T12:23:23.560Z,93.46
2019-02-19T12:24:23.600Z,93.36
2019-02-19T12:25:23.639Z,93.36
2019-02-19T12:26:23.679Z,93.36
2019-02-19T12:27:23.722Z,92.50
2019-02-19T12:28:23.762Z,92.79
2019-02-19T12:29:23.809Z,92.41
2019-02-19T12:30:23.847Z,91.93
2019-02-19T12:31:23.886Z,92.17
2019-02-19T12:32:23.927Z,90.98
2019-02-19T12:33:23.970Z,91.17
2019-02-19T12:34:24.010Z,91.27
2019-02-19T12:35:24.053Z,91.36
2019-02-19T12:36:24.095Z,90.12
2019-02-19T12:37:24.134Z,90.31
2019-02-19T12:38:24.174Z,90.41
2019-02-19T12:39:24.220Z,90.69
2019-02-19T12:40:24.260Z,90.31
2019-02-19T12:41:24.314Z,90.69
2019-02-19T12:42:24.347Z,90.36
2019-02-19T12:43:24.384Z,89.89
2019-02-19T12:44:24.423Z,90.12
2019-02-19T12:45:24.465Z,89.89
2019-02-19T12:46:24.504Z,90.31
2019-02-19T12:47:24.544Z,89.89
2019-02-19T12:48:24.584Z,90.55
2019-02-19T12:49:24.634Z,90.64
2019-02-19T12:50:24.675Z,90.64
2019-02-19T12:51:26.775Z,91.22
2019-02-19T12:52:24.758Z,91.13
2019-02-19T12:53:24.859Z,91.50